« Back
NWS Peachtree City, Ga » Text Product » CSG Terminal Aerodrome Forecast


Printer-friendly Version
Current Version              Previous Versions:   1  2  3  4  5  6  7  8  9  

Terminal Aerodrome Forecast

609
FTUS42 KFFC 250157 AAA
TAFCSG
TAF AMD
KCSG 250157Z 2502/2524 00000KT P6SM SCT250
     FM251400 09003KT P6SM SCT030
     FM251800 11007KT P6SM SCT050=

USA.gov is the U.S. government's official web portal to all federal, state and local government web resources and services.